sensor_id;sensor_type;location;lat;lon;timestamp;temperature;humidity
3850;DHT22;1940;51.052;13.678;2023-06-26T00:00:17;19.90;81.80
3850;DHT22;1940;51.052;13.678;2023-06-26T00:02:43;19.90;82.50
3850;DHT22;1940;51.052;13.678;2023-06-26T00:05:08;19.80;82.90
3850;DHT22;1940;51.052;13.678;2023-06-26T00:07:34;19.80;83.10
3850;DHT22;1940;51.052;13.678;2023-06-26T00:10:00;19.80;83.40
3850;DHT22;1940;51.052;13.678;2023-06-26T00:12:26;19.80;83.00
3850;DHT22;1940;51.052;13.678;2023-06-26T00:14:52;19.70;82.90
3850;DHT22;1940;51.052;13.678;2023-06-26T00:17:18;19.70;82.90
3850;DHT22;1940;51.052;13.678;2023-06-26T00:19:44;19.60;82.80
3850;DHT22;1940;51.052;13.678;2023-06-26T00:22:09;19.50;83.10
3850;DHT22;1940;51.052;13.678;2023-06-26T00:24:35;19.50;83.00
3850;DHT22;1940;51.052;13.678;2023-06-26T00:27:01;19.40;82.90
3850;DHT22;1940;51.052;13.678;2023-06-26T00:29:26;19.40;83.00
3850;DHT22;1940;51.052;13.678;2023-06-26T00:31:52;19.30;83.00
3850;DHT22;1940;51.052;13.678;2023-06-26T00:34:17;19.20;83.00
3850;DHT22;1940;51.052;13.678;2023-06-26T00:36:44;19.20;83.10
3850;DHT22;1940;51.052;13.678;2023-06-26T00:39:10;19.20;83.30
3850;DHT22;1940;51.052;13.678;2023-06-26T00:41:37;19.20;83.10
3850;DHT22;1940;51.052;13.678;2023-06-26T00:44:06;19.20;83.10
3850;DHT22;1940;51.052;13.678;2023-06-26T00:46:32;19.10;83.30
3850;DHT22;1940;51.052;13.678;2023-06-26T00:49:02;19.20;83.20
3850;DHT22;1940;51.052;13.678;2023-06-26T00:51:29;19.10;83.10
3850;DHT22;1940;51.052;13.678;2023-06-26T00:53:56;19.10;83.00
3850;DHT22;1940;51.052;13.678;2023-06-26T00:56:22;19.20;83.10
3850;DHT22;1940;51.052;13.678;2023-06-26T00:58:48;19.10;83.80
3850;DHT22;1940;51.052;13.678;2023-06-26T01:01:13;19.10;84.10
3850;DHT22;1940;51.052;13.678;2023-06-26T01:03:43;19.10;84.40
3850;DHT22;1940;51.052;13.678;2023-06-26T01:06:11;19.00;84.50
3850;DHT22;1940;51.052;13.678;2023-06-26T01:08:39;19.10;84.40
3850;DHT22;1940;51.052;13.678;2023-06-26T01:11:05;19.00;84.70
3850;DHT22;1940;51.052;13.678;2023-06-26T01:13:31;19.00;84.70
3850;DHT22;1940;51.052;13.678;2023-06-26T01:15:58;19.00;84.70
3850;DHT22;1940;51.052;13.678;2023-06-26T01:18:25;19.00;84.70
3850;DHT22;1940;51.052;13.678;2023-06-26T01:20:51;18.90;84.10
3850;DHT22;1940;51.052;13.678;2023-06-26T01:23:23;18.90;84.70
3850;DHT22;1940;51.052;13.678;2023-06-26T01:28:34;18.80;85.20
3850;DHT22;1940;51.052;13.678;2023-06-26T01:31:01;18.80;85.10
3850;DHT22;1940;51.052;13.678;2023-06-26T01:33:27;18.80;85.60
3850;DHT22;1940;51.052;13.678;2023-06-26T01:35:53;18.70;85.70
3850;DHT22;1940;51.052;13.678;2023-06-26T01:38:20;18.70;85.60
3850;DHT22;1940;51.052;13.678;2023-06-26T01:40:48;18.70;85.60
3850;DHT22;1940;51.052;13.678;2023-06-26T01:43:24;18.70;85.40
3850;DHT22;1940;51.052;13.678;2023-06-26T01:45:53;18.60;85.90
3850;DHT22;1940;51.052;13.678;2023-06-26T01:48:23;18.60;86.10
3850;DHT22;1940;51.052;13.678;2023-06-26T01:50:52;18.60;86.20
3850;DHT22;1940;51.052;13.678;2023-06-26T01:53:21;18.60;85.90
3850;DHT22;1940;51.052;13.678;2023-06-26T01:56:00;18.60;85.90
3850;DHT22;1940;51.052;13.678;2023-06-26T01:58:27;18.50;86.40
3850;DHT22;1940;51.052;13.678;2023-06-26T02:00:53;18.50;86.30
3850;DHT22;1940;51.052;13.678;2023-06-26T02:03:19;18.50;86.10
3850;DHT22;1940;51.052;13.678;2023-06-26T02:05:45;18.50;86.30
3850;DHT22;1940;51.052;13.678;2023-06-26T02:08:14;18.50;86.30
3850;DHT22;1940;51.052;13.678;2023-06-26T02:10:39;18.40;86.40
3850;DHT22;1940;51.052;13.678;2023-06-26T02:13:05;18.40;86.30
3850;DHT22;1940;51.052;13.678;2023-06-26T02:15:30;18.40;86.20
3850;DHT22;1940;51.052;13.678;2023-06-26T02:17:56;18.40;86.00
3850;DHT22;1940;51.052;13.678;2023-06-26T02:20:21;18.40;85.80
3850;DHT22;1940;51.052;13.678;2023-06-26T02:22:47;18.40;85.70
3850;DHT22;1940;51.052;13.678;2023-06-26T02:25:12;18.40;85.60
3850;DHT22;1940;51.052;13.678;2023-06-26T02:27:38;18.40;85.40
3850;DHT22;1940;51.052;13.678;2023-06-26T02:30:04;18.40;85.30
3850;DHT22;1940;51.052;13.678;2023-06-26T02:32:30;18.40;85.90
3850;DHT22;1940;51.052;13.678;2023-06-26T02:34:55;18.40;85.30
3850;DHT22;1940;51.052;13.678;2023-06-26T02:37:21;18.40;85.10
3850;DHT22;1940;51.052;13.678;2023-06-26T02:39:46;18.30;85.20
3850;DHT22;1940;51.052;13.678;2023-06-26T02:42:12;18.20;85.30
3850;DHT22;1940;51.052;13.678;2023-06-26T02:44:37;18.20;85.50
3850;DHT22;1940;51.052;13.678;2023-06-26T02:47:03;18.20;85.70
3850;DHT22;1940;51.052;13.678;2023-06-26T02:49:29;18.10;86.00
3850;DHT22;1940;51.052;13.678;2023-06-26T02:51:54;18.20;85.90
3850;DHT22;1940;51.052;13.678;2023-06-26T02:54:20;18.10;86.00
3850;DHT22;1940;51.052;13.678;2023-06-26T02:56:45;18.10;86.10
3850;DHT22;1940;51.052;13.678;2023-06-26T02:59:11;18.10;85.90
3850;DHT22;1940;51.052;13.678;2023-06-26T03:01:36;18.10;86.10
3850;DHT22;1940;51.052;13.678;2023-06-26T03:04:02;18.10;86.20
3850;DHT22;1940;51.052;13.678;2023-06-26T03:06:28;18.00;86.30
3850;DHT22;1940;51.052;13.678;2023-06-26T03:08:53;18.10;86.40
3850;DHT22;1940;51.052;13.678;2023-06-26T03:11:19;18.10;86.20
3850;DHT22;1940;51.052;13.678;2023-06-26T03:13:45;18.20;86.00
3850;DHT22;1940;51.052;13.678;2023-06-26T03:16:11;18.10;86.10
3850;DHT22;1940;51.052;13.678;2023-06-26T03:18:36;18.20;86.40
3850;DHT22;1940;51.052;13.678;2023-06-26T03:21:02;18.40;85.80
3850;DHT22;1940;51.052;13.678;2023-06-26T03:23:27;18.70;84.80
3850;DHT22;1940;51.052;13.678;2023-06-26T03:25:53;19.00;83.80
3850;DHT22;1940;51.052;13.678;2023-06-26T03:28:19;19.40;82.60
3850;DHT22;1940;51.052;13.678;2023-06-26T03:30:44;19.80;81.40
3850;DHT22;1940;51.052;13.678;2023-06-26T03:33:10;20.20;79.70
3850;DHT22;1940;51.052;13.678;2023-06-26T03:35:36;20.50;78.90
3850;DHT22;1940;51.052;13.678;2023-06-26T03:38:04;20.70;78.40
3850;DHT22;1940;51.052;13.678;2023-06-26T03:40:29;21.00;77.00
3850;DHT22;1940;51.052;13.678;2023-06-26T03:42:55;21.30;76.20
3850;DHT22;1940;51.052;13.678;2023-06-26T03:45:21;21.60;75.10
3850;DHT22;1940;51.052;13.678;2023-06-26T03:47:46;21.90;74.40
3850;DHT22;1940;51.052;13.678;2023-06-26T03:50:17;22.00;73.90
3850;DHT22;1940;51.052;13.678;2023-06-26T03:52:42;22.00;73.40
3850;DHT22;1940;51.052;13.678;2023-06-26T03:55:08;22.20;73.30
3850;DHT22;1940;51.052;13.678;2023-06-26T03:57:34;22.20;72.60
3850;DHT22;1940;51.052;13.678;2023-06-26T03:59:59;22.30;72.80
3850;DHT22;1940;51.052;13.678;2023-06-26T04:02:25;22.50;72.50
3850;DHT22;1940;51.052;13.678;2023-06-26T04:04:50;22.60;72.00
3850;DHT22;1940;51.052;13.678;2023-06-26T04:07:17;22.80;71.60
3850;DHT22;1940;51.052;13.678;2023-06-26T04:09:43;23.20;70.60
3850;DHT22;1940;51.052;13.678;2023-06-26T04:12:09;23.60;69.70
3850;DHT22;1940;51.052;13.678;2023-06-26T04:14:35;23.60;69.10
3850;DHT22;1940;51.052;13.678;2023-06-26T04:17:01;23.60;69.10
3850;DHT22;1940;51.052;13.678;2023-06-26T04:19:29;24.00;68.80
3850;DHT22;1940;51.052;13.678;2023-06-26T04:21:54;24.40;67.80
3850;DHT22;1940;51.052;13.678;2023-06-26T04:24:20;24.60;66.80
3850;DHT22;1940;51.052;13.678;2023-06-26T04:26:45;24.80;66.60
3850;DHT22;1940;51.052;13.678;2023-06-26T04:29:11;25.10;65.90
3850;DHT22;1940;51.052;13.678;2023-06-26T04:31:36;25.40;65.00
3850;DHT22;1940;51.052;13.678;2023-06-26T04:34:02;25.60;64.90
3850;DHT22;1940;51.052;13.678;2023-06-26T04:36:27;25.90;64.10
3850;DHT22;1940;51.052;13.678;2023-06-26T04:38:57;26.40;63.60
3850;DHT22;1940;51.052;13.678;2023-06-26T04:41:22;26.60;62.80
3850;DHT22;1940;51.052;13.678;2023-06-26T04:43:48;26.90;62.00
3850;DHT22;1940;51.052;13.678;2023-06-26T04:46:13;27.00;61.50
3850;DHT22;1940;51.052;13.678;2023-06-26T04:48:39;27.10;61.60
3850;DHT22;1940;51.052;13.678;2023-06-26T04:51:04;27.20;60.70
3850;DHT22;1940;51.052;13.678;2023-06-26T04:53:30;26.90;61.60
3850;DHT22;1940;51.052;13.678;2023-06-26T04:55:55;26.70;61.90
3850;DHT22;1940;51.052;13.678;2023-06-26T04:58:21;26.70;61.80
3850;DHT22;1940;51.052;13.678;2023-06-26T05:00:47;26.60;62.30
3850;DHT22;1940;51.052;13.678;2023-06-26T05:03:13;26.90;61.80
3850;DHT22;1940;51.052;13.678;2023-06-26T05:05:39;27.30;60.90
3850;DHT22;1940;51.052;13.678;2023-06-26T05:08:20;27.50;60.60
3850;DHT22;1940;51.052;13.678;2023-06-26T05:10:46;27.20;60.80
3850;DHT22;1940;51.052;13.678;2023-06-26T05:13:12;26.90;61.80
3850;DHT22;1940;51.052;13.678;2023-06-26T05:15:40;27.20;61.20
3850;DHT22;1940;51.052;13.678;2023-06-26T05:18:06;27.30;61.20
3850;DHT22;1940;51.052;13.678;2023-06-26T05:20:32;27.90;60.30
3850;DHT22;1940;51.052;13.678;2023-06-26T05:22:58;28.50;59.20
3850;DHT22;1940;51.052;13.678;2023-06-26T05:25:24;28.90;58.40
3850;DHT22;1940;51.052;13.678;2023-06-26T05:27:50;29.20;58.00
3850;DHT22;1940;51.052;13.678;2023-06-26T05:30:16;29.80;56.80
3850;DHT22;1940;51.052;13.678;2023-06-26T05:32:44;30.30;56.10
3850;DHT22;1940;51.052;13.678;2023-06-26T05:35:10;30.70;55.30
3850;DHT22;1940;51.052;13.678;2023-06-26T05:37:36;30.90;54.80
3850;DHT22;1940;51.052;13.678;2023-06-26T05:40:02;31.00;54.80
3850;DHT22;1940;51.052;13.678;2023-06-26T05:42:29;31.10;54.50
3850;DHT22;1940;51.052;13.678;2023-06-26T05:44:55;31.30;54.30
3850;DHT22;1940;51.052;13.678;2023-06-26T05:47:21;31.40;54.00
3850;DHT22;1940;51.052;13.678;2023-06-26T05:49:47;31.50;53.90
3850;DHT22;1940;51.052;13.678;2023-06-26T05:52:13;31.70;53.60
3850;DHT22;1940;51.052;13.678;2023-06-26T05:54:39;32.10;53.00
3850;DHT22;1940;51.052;13.678;2023-06-26T05:57:04;31.90;52.80
3850;DHT22;1940;51.052;13.678;2023-06-26T05:59:35;31.80;53.00
3850;DHT22;1940;51.052;13.678;2023-06-26T06:02:02;31.60;53.40
3850;DHT22;1940;51.052;13.678;2023-06-26T06:04:27;31.40;53.70
3850;DHT22;1940;51.052;13.678;2023-06-26T06:06:53;31.70;53.30
3850;DHT22;1940;51.052;13.678;2023-06-26T06:09:18;31.70;53.10
3850;DHT22;1940;51.052;13.678;2023-06-26T06:11:44;31.70;53.20
3850;DHT22;1940;51.052;13.678;2023-06-26T06:14:09;31.60;52.60
3850;DHT22;1940;51.052;13.678;2023-06-26T06:16:35;31.50;53.30
3850;DHT22;1940;51.052;13.678;2023-06-26T06:19:00;31.50;53.60
3850;DHT22;1940;51.052;13.678;2023-06-26T06:21:28;31.70;53.30
3850;DHT22;1940;51.052;13.678;2023-06-26T06:23:53;31.90;52.70
3850;DHT22;1940;51.052;13.678;2023-06-26T06:26:19;32.00;52.80
3850;DHT22;1940;51.052;13.678;2023-06-26T06:28:44;32.20;52.80
3850;DHT22;1940;51.052;13.678;2023-06-26T06:31:10;32.50;52.60
3850;DHT22;1940;51.052;13.678;2023-06-26T06:33:35;32.60;52.00
3850;DHT22;1940;51.052;13.678;2023-06-26T06:36:01;32.70;52.10
3850;DHT22;1940;51.052;13.678;2023-06-26T06:38:26;32.90;52.20
3850;DHT22;1940;51.052;13.678;2023-06-26T06:40:52;33.00;52.00
3850;DHT22;1940;51.052;13.678;2023-06-26T06:43:17;33.00;51.80
3850;DHT22;1940;51.052;13.678;2023-06-26T06:45:42;33.10;51.60
3850;DHT22;1940;51.052;13.678;2023-06-26T06:48:08;33.20;51.80
3850;DHT22;1940;51.052;13.678;2023-06-26T06:50:33;33.40;51.60
3850;DHT22;1940;51.052;13.678;2023-06-26T06:52:59;33.50;51.20
3850;DHT22;1940;51.052;13.678;2023-06-26T06:55:24;33.30;51.40
3850;DHT22;1940;51.052;13.678;2023-06-26T06:57:51;33.30;51.50
3850;DHT22;1940;51.052;13.678;2023-06-26T07:00:16;32.80;52.40
3850;DHT22;1940;51.052;13.678;2023-06-26T07:02:43;32.70;52.50
3850;DHT22;1940;51.052;13.678;2023-06-26T07:05:10;32.90;52.60
3850;DHT22;1940;51.052;13.678;2023-06-26T07:07:36;32.90;52.30
3850;DHT22;1940;51.052;13.678;2023-06-26T07:10:10;33.00;52.40
3850;DHT22;1940;51.052;13.678;2023-06-26T07:12:36;33.00;52.10
3850;DHT22;1940;51.052;13.678;2023-06-26T07:15:03;33.00;52.60
3850;DHT22;1940;51.052;13.678;2023-06-26T07:17:30;33.20;52.00
3850;DHT22;1940;51.052;13.678;2023-06-26T07:19:55;33.30;51.60
3850;DHT22;1940;51.052;13.678;2023-06-26T07:22:21;33.50;51.50
3850;DHT22;1940;51.052;13.678;2023-06-26T07:24:47;33.40;51.90
3850;DHT22;1940;51.052;13.678;2023-06-26T07:27:15;33.40;52.10
3850;DHT22;1940;51.052;13.678;2023-06-26T07:29:41;33.80;51.10
3850;DHT22;1940;51.052;13.678;2023-06-26T07:32:07;34.00;51.20
3850;DHT22;1940;51.052;13.678;2023-06-26T07:34:33;34.40;50.70
3850;DHT22;1940;51.052;13.678;2023-06-26T07:36:58;34.60;49.90
3850;DHT22;1940;51.052;13.678;2023-06-26T07:39:24;34.40;50.10
3850;DHT22;1940;51.052;13.678;2023-06-26T07:41:49;34.60;50.30
3850;DHT22;1940;51.052;13.678;2023-06-26T07:44:15;34.90;49.80
3850;DHT22;1940;51.052;13.678;2023-06-26T07:46:41;35.10;49.50
3850;DHT22;1940;51.052;13.678;2023-06-26T07:49:06;35.10;49.70
3850;DHT22;1940;51.052;13.678;2023-06-26T07:51:42;35.10;49.80
3850;DHT22;1940;51.052;13.678;2023-06-26T07:54:08;34.80;50.10
3850;DHT22;1940;51.052;13.678;2023-06-26T07:56:53;34.70;50.20
3850;DHT22;1940;51.052;13.678;2023-06-26T07:59:23;35.10;49.60
3850;DHT22;1940;51.052;13.678;2023-06-26T08:01:53;35.50;49.50
3850;DHT22;1940;51.052;13.678;2023-06-26T08:04:20;35.90;48.40
3850;DHT22;1940;51.052;13.678;2023-06-26T08:06:48;35.80;49.40
3850;DHT22;1940;51.052;13.678;2023-06-26T08:09:14;35.70;48.80
3850;DHT22;1940;51.052;13.678;2023-06-26T08:11:40;36.30;48.10
3850;DHT22;1940;51.052;13.678;2023-06-26T08:14:05;36.50;49.40
3850;DHT22;1940;51.052;13.678;2023-06-26T08:16:31;36.30;48.00
3850;DHT22;1940;51.052;13.678;2023-06-26T08:18:57;36.20;48.20
3850;DHT22;1940;51.052;13.678;2023-06-26T08:21:22;36.80;46.90
3850;DHT22;1940;51.052;13.678;2023-06-26T08:23:47;37.40;46.20
3850;DHT22;1940;51.052;13.678;2023-06-26T08:26:13;37.60;45.80
3850;DHT22;1940;51.052;13.678;2023-06-26T08:28:39;37.60;46.00
3850;DHT22;1940;51.052;13.678;2023-06-26T08:31:05;37.80;46.50
3850;DHT22;1940;51.052;13.678;2023-06-26T08:33:30;38.40;44.40
3850;DHT22;1940;51.052;13.678;2023-06-26T08:35:55;39.00;43.20
3850;DHT22;1940;51.052;13.678;2023-06-26T08:38:21;38.80;43.40
3850;DHT22;1940;51.052;13.678;2023-06-26T08:40:47;38.90;43.70
3850;DHT22;1940;51.052;13.678;2023-06-26T08:43:12;39.20;42.90
3850;DHT22;1940;51.052;13.678;2023-06-26T08:45:38;38.70;43.80
3850;DHT22;1940;51.052;13.678;2023-06-26T08:48:07;38.00;45.80
3850;DHT22;1940;51.052;13.678;2023-06-26T08:50:35;38.30;44.90
3850;DHT22;1940;51.052;13.678;2023-06-26T08:53:29;37.40;46.00
3850;DHT22;1940;51.052;13.678;2023-06-26T08:55:57;37.00;45.50
3850;DHT22;1940;51.052;13.678;2023-06-26T08:58:23;38.20;44.30
3850;DHT22;1940;51.052;13.678;2023-06-26T09:00:49;39.20;43.60
3850;DHT22;1940;51.052;13.678;2023-06-26T09:03:15;40.00;42.00
3850;DHT22;1940;51.052;13.678;2023-06-26T09:05:41;39.70;42.00
3850;DHT22;1940;51.052;13.678;2023-06-26T09:08:07;39.60;42.50
3850;DHT22;1940;51.052;13.678;2023-06-26T09:10:33;39.40;43.10
3850;DHT22;1940;51.052;13.678;2023-06-26T09:12:58;39.80;41.70
3850;DHT22;1940;51.052;13.678;2023-06-26T09:15:26;39.80;42.10
3850;DHT22;1940;51.052;13.678;2023-06-26T09:17:56;39.30;43.80
3850;DHT22;1940;51.052;13.678;2023-06-26T09:20:22;38.90;44.00
3850;DHT22;1940;51.052;13.678;2023-06-26T09:22:47;39.30;44.10
3850;DHT22;1940;51.052;13.678;2023-06-26T09:25:14;39.80;43.00
3850;DHT22;1940;51.052;13.678;2023-06-26T09:27:39;39.20;41.70
3850;DHT22;1940;51.052;13.678;2023-06-26T09:30:06;38.80;43.20
3850;DHT22;1940;51.052;13.678;2023-06-26T09:32:35;39.10;42.50
3850;DHT22;1940;51.052;13.678;2023-06-26T09:35:02;39.30;42.30
3850;DHT22;1940;51.052;13.678;2023-06-26T09:37:28;39.60;40.30
3850;DHT22;1940;51.052;13.678;2023-06-26T09:39:54;39.80;41.60
3850;DHT22;1940;51.052;13.678;2023-06-26T09:42:20;40.30;41.70
3850;DHT22;1940;51.052;13.678;2023-06-26T09:44:46;40.10;41.10
3850;DHT22;1940;51.052;13.678;2023-06-26T09:47:12;40.60;39.40
3850;DHT22;1940;51.052;13.678;2023-06-26T09:49:42;40.70;40.40
3850;DHT22;1940;51.052;13.678;2023-06-26T09:52:16;40.70;40.30
3850;DHT22;1940;51.052;13.678;2023-06-26T09:54:45;40.80;40.30
3850;DHT22;1940;51.052;13.678;2023-06-26T09:57:18;41.20;41.20
3850;DHT22;1940;51.052;13.678;2023-06-26T09:59:44;41.00;40.60
3850;DHT22;1940;51.052;13.678;2023-06-26T10:02:12;40.30;41.60
3850;DHT22;1940;51.052;13.678;2023-06-26T10:04:38;40.70;41.30
3850;DHT22;1940;51.052;13.678;2023-06-26T10:07:24;41.00;39.70
3850;DHT22;1940;51.052;13.678;2023-06-26T10:09:51;41.30;39.60
3850;DHT22;1940;51.052;13.678;2023-06-26T10:12:21;41.20;39.40
3850;DHT22;1940;51.052;13.678;2023-06-26T10:14:51;40.50;39.00
3850;DHT22;1940;51.052;13.678;2023-06-26T10:17:19;40.30;40.20
3850;DHT22;1940;51.052;13.678;2023-06-26T10:19:48;40.50;40.30
3850;DHT22;1940;51.052;13.678;2023-06-26T10:22:17;41.20;40.80
3850;DHT22;1940;51.052;13.678;2023-06-26T10:24:45;41.30;40.60
3850;DHT22;1940;51.052;13.678;2023-06-26T10:27:20;41.80;39.40
3850;DHT22;1940;51.052;13.678;2023-06-26T10:29:49;41.20;39.30
3850;DHT22;1940;51.052;13.678;2023-06-26T10:32:16;40.60;40.00
3850;DHT22;1940;51.052;13.678;2023-06-26T10:34:43;41.00;41.10
3850;DHT22;1940;51.052;13.678;2023-06-26T10:37:08;41.00;40.00
3850;DHT22;1940;51.052;13.678;2023-06-26T10:39:51;41.10;40.40
3850;DHT22;1940;51.052;13.678;2023-06-26T10:42:18;40.00;40.30
3850;DHT22;1940;51.052;13.678;2023-06-26T10:44:46;39.40;40.70
3850;DHT22;1940;51.052;13.678;2023-06-26T10:47:31;39.10;41.50
3850;DHT22;1940;51.052;13.678;2023-06-26T10:50:16;38.70;41.50
3850;DHT22;1940;51.052;13.678;2023-06-26T10:52:41;39.10;41.60
3850;DHT22;1940;51.052;13.678;2023-06-26T10:55:08;39.50;41.90
3850;DHT22;1940;51.052;13.678;2023-06-26T10:57:35;38.80;42.00
3850;DHT22;1940;51.052;13.678;2023-06-26T11:00:14;38.70;42.60
3850;DHT22;1940;51.052;13.678;2023-06-26T11:02:50;38.80;42.40
3850;DHT22;1940;51.052;13.678;2023-06-26T11:05:25;39.80;42.70
3850;DHT22;1940;51.052;13.678;2023-06-26T11:08:09;40.40;41.80
3850;DHT22;1940;51.052;13.678;2023-06-26T11:10:52;40.20;40.50
3850;DHT22;1940;51.052;13.678;2023-06-26T11:13:19;40.00;41.80
3850;DHT22;1940;51.052;13.678;2023-06-26T11:15:46;38.80;43.00
3850;DHT22;1940;51.052;13.678;2023-06-26T11:18:12;38.00;44.20
3850;DHT22;1940;51.052;13.678;2023-06-26T11:20:38;37.50;43.80
3850;DHT22;1940;51.052;13.678;2023-06-26T11:23:08;36.60;45.10
3850;DHT22;1940;51.052;13.678;2023-06-26T11:25:36;36.10;46.00
3850;DHT22;1940;51.052;13.678;2023-06-26T11:28:03;36.00;46.90
3850;DHT22;1940;51.052;13.678;2023-06-26T11:30:29;35.80;46.60
3850;DHT22;1940;51.052;13.678;2023-06-26T11:33:03;35.10;46.60
3850;DHT22;1940;51.052;13.678;2023-06-26T11:35:29;34.60;48.20
3850;DHT22;1940;51.052;13.678;2023-06-26T11:37:56;34.10;48.00
3850;DHT22;1940;51.052;13.678;2023-06-26T11:40:23;33.70;48.50
3850;DHT22;1940;51.052;13.678;2023-06-26T11:42:53;33.40;50.40
3850;DHT22;1940;51.052;13.678;2023-06-26T11:45:19;33.40;49.40
3850;DHT22;1940;51.052;13.678;2023-06-26T11:47:45;33.40;48.90
3850;DHT22;1940;51.052;13.678;2023-06-26T11:50:15;33.20;49.80
3850;DHT22;1940;51.052;13.678;2023-06-26T11:52:43;33.00;48.80
3850;DHT22;1940;51.052;13.678;2023-06-26T11:55:09;33.00;49.70
3850;DHT22;1940;51.052;13.678;2023-06-26T11:57:36;33.00;49.80
3850;DHT22;1940;51.052;13.678;2023-06-26T12:00:14;33.00;50.50
3850;DHT22;1940;51.052;13.678;2023-06-26T12:02:41;33.10;49.90
3850;DHT22;1940;51.052;13.678;2023-06-26T12:05:07;33.30;50.00
3850;DHT22;1940;51.052;13.678;2023-06-26T12:07:33;33.20;48.90
3850;DHT22;1940;51.052;13.678;2023-06-26T12:10:00;33.20;48.70
3850;DHT22;1940;51.052;13.678;2023-06-26T12:12:26;33.10;49.20
3850;DHT22;1940;51.052;13.678;2023-06-26T12:14:52;33.00;50.50
3850;DHT22;1940;51.052;13.678;2023-06-26T12:17:22;32.90;49.70
3850;DHT22;1940;51.052;13.678;2023-06-26T12:19:49;32.70;50.40
3850;DHT22;1940;51.052;13.678;2023-06-26T12:22:15;32.50;49.60
3850;DHT22;1940;51.052;13.678;2023-06-26T12:24:42;32.50;50.40
3850;DHT22;1940;51.052;13.678;2023-06-26T12:27:13;32.50;49.80
3850;DHT22;1940;51.052;13.678;2023-06-26T12:29:45;32.20;50.20
3850;DHT22;1940;51.052;13.678;2023-06-26T12:32:12;32.30;51.50
3850;DHT22;1940;51.052;13.678;2023-06-26T12:34:39;32.20;51.60
3850;DHT22;1940;51.052;13.678;2023-06-26T12:37:09;32.30;51.70
3850;DHT22;1940;51.052;13.678;2023-06-26T12:39:55;32.40;50.60
3850;DHT22;1940;51.052;13.678;2023-06-26T12:42:22;32.50;50.40
3850;DHT22;1940;51.052;13.678;2023-06-26T12:44:49;32.50;51.00
3850;DHT22;1940;51.052;13.678;2023-06-26T12:47:15;32.60;49.40
3850;DHT22;1940;51.052;13.678;2023-06-26T12:49:43;32.80;50.70
3850;DHT22;1940;51.052;13.678;2023-06-26T12:52:15;32.90;49.50
3850;DHT22;1940;51.052;13.678;2023-06-26T12:54:42;32.50;49.70
3850;DHT22;1940;51.052;13.678;2023-06-26T12:57:09;32.50;51.00
3850;DHT22;1940;51.052;13.678;2023-06-26T12:59:37;32.50;49.70
3850;DHT22;1940;51.052;13.678;2023-06-26T13:02:02;32.60;49.90
3850;DHT22;1940;51.052;13.678;2023-06-26T13:04:28;32.70;49.30
3850;DHT22;1940;51.052;13.678;2023-06-26T13:06:54;32.70;50.10
3850;DHT22;1940;51.052;13.678;2023-06-26T13:09:20;32.90;49.40
3850;DHT22;1940;51.052;13.678;2023-06-26T13:11:45;33.00;48.40
3850;DHT22;1940;51.052;13.678;2023-06-26T13:14:11;32.90;48.40
3850;DHT22;1940;51.052;13.678;2023-06-26T13:16:37;32.90;48.80
3850;DHT22;1940;51.052;13.678;2023-06-26T13:19:02;32.80;49.40
3850;DHT22;1940;51.052;13.678;2023-06-26T13:21:28;32.90;49.10
3850;DHT22;1940;51.052;13.678;2023-06-26T13:23:55;33.10;50.10
3850;DHT22;1940;51.052;13.678;2023-06-26T13:26:21;33.10;49.10
3850;DHT22;1940;51.052;13.678;2023-06-26T13:28:47;33.10;48.40
3850;DHT22;1940;51.052;13.678;2023-06-26T13:31:13;33.10;48.00
3850;DHT22;1940;51.052;13.678;2023-06-26T13:33:39;33.10;47.80
3850;DHT22;1940;51.052;13.678;2023-06-26T13:36:04;33.10;48.60
3850;DHT22;1940;51.052;13.678;2023-06-26T13:38:33;33.20;48.30
3850;DHT22;1940;51.052;13.678;2023-06-26T13:40:58;33.10;48.70
3850;DHT22;1940;51.052;13.678;2023-06-26T13:43:26;32.90;47.80
3850;DHT22;1940;51.052;13.678;2023-06-26T13:45:52;32.90;46.90
3850;DHT22;1940;51.052;13.678;2023-06-26T13:48:18;33.00;48.00
3850;DHT22;1940;51.052;13.678;2023-06-26T13:50:45;32.90;48.70
3850;DHT22;1940;51.052;13.678;2023-06-26T13:53:10;32.70;48.50
3850;DHT22;1940;51.052;13.678;2023-06-26T13:55:36;32.80;48.60
3850;DHT22;1940;51.052;13.678;2023-06-26T13:58:04;32.80;49.10
3850;DHT22;1940;51.052;13.678;2023-06-26T14:00:33;32.80;48.40
3850;DHT22;1940;51.052;13.678;2023-06-26T14:03:03;32.80;49.30
3850;DHT22;1940;51.052;13.678;2023-06-26T14:05:32;32.90;49.60
3850;DHT22;1940;51.052;13.678;2023-06-26T14:07:58;32.80;49.30
3850;DHT22;1940;51.052;13.678;2023-06-26T14:10:24;32.70;47.70
3850;DHT22;1940;51.052;13.678;2023-06-26T14:12:50;32.70;48.70
3850;DHT22;1940;51.052;13.678;2023-06-26T14:15:15;32.90;48.00
3850;DHT22;1940;51.052;13.678;2023-06-26T14:17:41;33.00;48.30
3850;DHT22;1940;51.052;13.678;2023-06-26T14:20:10;33.00;48.60
3850;DHT22;1940;51.052;13.678;2023-06-26T14:22:39;33.10;48.40
3850;DHT22;1940;51.052;13.678;2023-06-26T14:25:09;33.00;47.60
3850;DHT22;1940;51.052;13.678;2023-06-26T14:27:35;32.80;47.80
3850;DHT22;1940;51.052;13.678;2023-06-26T14:30:02;32.90;48.80
3850;DHT22;1940;51.052;13.678;2023-06-26T14:32:28;32.90;48.30
3850;DHT22;1940;51.052;13.678;2023-06-26T14:34:54;32.70;48.90
3850;DHT22;1940;51.052;13.678;2023-06-26T14:37:19;32.50;48.50
3850;DHT22;1940;51.052;13.678;2023-06-26T14:39:45;32.60;49.80
3850;DHT22;1940;51.052;13.678;2023-06-26T14:42:11;32.60;47.90
3850;DHT22;1940;51.052;13.678;2023-06-26T14:44:36;32.70;49.10
3850;DHT22;1940;51.052;13.678;2023-06-26T14:47:02;32.80;49.00
3850;DHT22;1940;51.052;13.678;2023-06-26T14:49:28;32.80;48.40
3850;DHT22;1940;51.052;13.678;2023-06-26T14:51:54;32.70;48.40
3850;DHT22;1940;51.052;13.678;2023-06-26T14:54:19;32.80;49.10
3850;DHT22;1940;51.052;13.678;2023-06-26T14:56:45;32.70;48.00
3850;DHT22;1940;51.052;13.678;2023-06-26T14:59:11;32.70;48.10
3850;DHT22;1940;51.052;13.678;2023-06-26T15:01:36;32.70;47.80
3850;DHT22;1940;51.052;13.678;2023-06-26T15:04:02;32.70;48.40
3850;DHT22;1940;51.052;13.678;2023-06-26T15:06:28;32.80;47.90
3850;DHT22;1940;51.052;13.678;2023-06-26T15:08:53;32.80;48.30
3850;DHT22;1940;51.052;13.678;2023-06-26T15:11:19;32.80;47.30
3850;DHT22;1940;51.052;13.678;2023-06-26T15:13:44;32.80;47.70
3850;DHT22;1940;51.052;13.678;2023-06-26T15:16:10;32.80;48.40
3850;DHT22;1940;51.052;13.678;2023-06-26T15:18:35;32.90;48.60
3850;DHT22;1940;51.052;13.678;2023-06-26T15:21:01;32.90;48.30
3850;DHT22;1940;51.052;13.678;2023-06-26T15:23:28;32.90;48.30
3850;DHT22;1940;51.052;13.678;2023-06-26T15:25:54;32.90;48.30
3850;DHT22;1940;51.052;13.678;2023-06-26T15:28:19;32.90;47.80
3850;DHT22;1940;51.052;13.678;2023-06-26T15:30:46;32.90;48.50
3850;DHT22;1940;51.052;13.678;2023-06-26T15:33:12;33.00;49.10
3850;DHT22;1940;51.052;13.678;2023-06-26T15:35:37;32.90;49.00
3850;DHT22;1940;51.052;13.678;2023-06-26T15:38:03;33.00;48.20
3850;DHT22;1940;51.052;13.678;2023-06-26T15:40:28;33.00;48.90
3850;DHT22;1940;51.052;13.678;2023-06-26T15:42:54;33.00;48.90
3850;DHT22;1940;51.052;13.678;2023-06-26T15:45:19;33.00;48.70